Time;durP1;ratioP1;P1;durP2;ratioP2;P2;SDS_P1;SDS_P2;PMS_P1;PMS_P2;Temp;Humidity;BMP_temperature;BMP_pressure;BME280_temperature;BME280_humidity;BME280_pressure;Samples;Min_cycle;Max_cycle;Signal;HPM_P1;HPM_P2
2021/06/27 00:01:28;;;;;;;14.73;13.63;;;20.70;98.50;;;;;;5057396;28;20169;-81
2021/06/27 00:03:54;;;;;;;14.53;13.33;;;20.70;98.50;;;;;;5057784;28;20640;-81
2021/06/27 00:06:21;;;;;;;15.10;13.80;;;20.70;98.40;;;;;;5075058;28;20192;-80
2021/06/27 00:08:47;;;;;;;14.90;13.70;;;20.60;98.40;;;;;;5075649;28;20403;-81
2021/06/27 00:11:14;;;;;;;16.17;14.90;;;20.60;98.30;;;;;;5074967;28;20426;-82
2021/06/27 00:13:42;;;;;;;17.30;15.70;;;20.60;98.30;;;;;;5075584;28;20466;-82
2021/06/27 00:16:08;;;;;;;15.50;14.30;;;20.60;98.70;;;;;;5056997;28;21082;-83
2021/06/27 00:18:35;;;;;;;14.50;13.30;;;20.50;98.30;;;;;;5075624;28;20399;-81
2021/06/27 00:21:06;;;;;;;16.67;15.23;;;20.50;98.70;;;;;;5075489;28;20805;-82
2021/06/27 00:23:35;;;;;;;15.60;14.30;;;20.40;98.70;;;;;;5075631;28;20427;-82
2021/06/27 00:26:01;;;;;;;16.07;14.57;;;20.40;98.80;;;;;;5075315;28;20404;-81
2021/06/27 00:28:27;;;;;;;16.37;15.07;;;20.30;98.70;;;;;;5074932;28;21100;-81
2021/06/27 00:30:53;;;;;;;16.20;15.00;;;20.30;98.90;;;;;;5074440;28;20493;-81
2021/06/27 00:33:21;;;;;;;15.73;14.37;;;20.20;99.10;;;;;;5074622;28;20416;-81
2021/06/27 00:35:47;;;;;;;16.20;14.80;;;20.20;99.10;;;;;;5075287;28;20400;-81
2021/06/27 00:38:13;;;;;;;16.10;14.80;;;20.10;99.10;;;;;;5074785;28;20956;-81
2021/06/27 00:40:39;;;;;;;16.10;14.90;;;20.10;99.30;;;;;;5075217;28;20192;-81
2021/06/27 00:43:07;;;;;;;16.53;15.03;;;20.10;99.50;;;;;;5075200;28;20442;-81
2021/06/27 00:45:34;;;;;;;16.87;15.30;;;20.10;99.70;;;;;;5074784;28;20450;-82
2021/06/27 00:48:00;;;;;;;15.37;14.10;;;20.10;99.70;;;;;;5056735;28;20459;-81
2021/06/27 00:50:36;;;;;;;13.93;12.80;;;20.10;99.80;;;;;;5056969;28;20407;-81
2021/06/27 00:53:02;;;;;;;16.23;14.83;;;20.10;99.90;;;;;;5057121;28;20405;-81
2021/06/27 00:55:28;;;;;;;15.80;14.57;;;20.10;99.80;;;;;;5056580;28;20688;-82
2021/06/27 00:57:55;;;;;;;16.07;14.77;;;20.00;99.80;;;;;;5074942;28;20248;-81
2021/06/27 01:00:24;;;;;;;16.37;14.97;;;20.00;99.70;;;;;;5074309;28;20490;-82
2021/06/27 01:02:50;;;;;;;16.07;14.80;;;19.90;99.80;;;;;;5074680;28;20482;-82
2021/06/27 01:05:18;;;;;;;16.27;14.67;;;19.90;99.90;;;;;;5056294;28;20499;-81
2021/06/27 01:07:44;;;;;;;15.70;14.40;;;19.70;99.90;;;;;;5074447;28;20236;-83
2021/06/27 01:10:11;;;;;;;16.23;14.83;;;19.60;99.90;;;;;;5073939;28;20489;-83
2021/06/27 01:12:37;;;;;;;15.47;14.20;;;19.60;99.90;;;;;;5074411;28;20403;-81
2021/06/27 01:15:06;;;;;;;16.43;15.13;;;19.60;99.90;;;;;;5074320;28;20485;-82
2021/06/27 01:17:32;;;;;;;15.77;14.37;;;19.60;99.90;;;;;;5056085;28;20418;-82
2021/06/27 01:19:57;;;;;;;16.93;15.40;;;19.50;99.90;;;;;;5074414;28;20407;-82
2021/06/27 01:22:26;;;;;;;16.70;15.30;;;19.50;99.90;;;;;;5073869;28;20230;-82
2021/06/27 01:24:53;;;;;;;17.27;15.77;;;19.40;99.90;;;;;;5074158;28;20173;-82
2021/06/27 01:27:19;;;;;;;15.60;14.10;;;19.40;99.90;;;;;;5055909;28;20465;-82
2021/06/27 01:29:45;;;;;;;16.20;14.60;;;19.30;99.90;;;;;;5056403;28;20891;-82
2021/06/27 01:32:12;;;;;;;17.33;15.73;;;19.30;99.90;;;;;;5073545;28;20490;-86
2021/06/27 01:34:40;;;;;;;17.63;16.03;;;19.30;99.90;;;;;;5073634;28;20701;-82
2021/06/27 01:37:06;;;;;;;16.80;15.30;;;19.20;99.90;;;;;;5073573;28;20417;-82
2021/06/27 01:39:35;;;;;;;17.37;15.93;;;19.20;99.90;;;;;;5055589;28;20746;-82
2021/06/27 01:42:01;;;;;;;17.47;15.97;;;19.20;99.90;;;;;;5073854;28;20404;-81
2021/06/27 01:44:27;;;;;;;17.50;16.00;;;19.20;99.90;;;;;;5073010;28;20408;-83
2021/06/27 01:46:56;;;;;;;16.80;15.40;;;19.20;99.90;;;;;;5074186;28;20451;-87
2021/06/27 01:49:22;;;;;;;17.40;15.80;;;19.00;99.90;;;;;;5072952;28;20403;-87
2021/06/27 01:51:47;;;;;;;18.70;17.10;;;18.90;99.90;;;;;;5073952;28;20411;-87
2021/06/27 01:54:13;;;;;;;17.97;16.37;;;18.80;99.90;;;;;;5073051;28;20407;-87
2021/06/27 01:56:39;;;;;;;17.60;16.00;;;18.70;99.90;;;;;;5073770;28;20691;-88
2021/06/27 01:59:05;;;;;;;18.20;16.63;;;18.70;99.90;;;;;;5073316;28;20251;-88
2021/06/27 02:01:35;;;;;;;18.03;16.53;;;18.70;99.90;;;;;;5055131;28;20680;-88
2021/06/27 02:04:01;;;;;;;17.90;16.40;;;18.70;99.90;;;;;;5073027;28;20759;-87
2021/06/27 02:06:28;;;;;;;18.27;16.67;;;18.70;99.90;;;;;;5072782;28;20931;-88
2021/06/27 02:08:55;;;;;;;17.10;15.70;;;18.70;99.90;;;;;;5073289;28;20415;-88
2021/06/27 02:11:23;;;;;;;18.23;16.53;;;18.80;99.90;;;;;;5072570;28;20758;-88
2021/06/27 02:13:51;;;;;;;17.33;15.83;;;18.80;99.90;;;;;;5055360;28;20446;-88
2021/06/27 02:16:17;;;;;;;17.93;16.23;;;18.80;99.90;;;;;;5072186;28;20428;-89
2021/06/27 02:18:45;;;;;;;18.00;16.47;;;18.80;99.90;;;;;;5055075;28;20420;-89
2021/06/27 02:21:24;;;;;;;18.23;16.70;;;18.90;99.90;;;;;;5072957;28;20763;-89
2021/06/27 02:23:50;;;;;;;16.53;15.13;;;18.90;99.90;;;;;;5073038;28;20383;-80
2021/06/27 02:26:18;;;;;;;18.20;16.40;;;18.90;99.90;;;;;;5072168;28;20772;-80
2021/06/27 02:28:44;;;;;;;18.33;16.63;;;18.90;99.90;;;;;;5072884;28;20489;-81
2021/06/27 02:31:10;;;;;;;18.73;16.87;;;18.90;99.90;;;;;;5072873;28;20395;-80
2021/06/27 02:33:36;;;;;;;17.93;16.40;;;18.90;99.90;;;;;;5072174;28;20403;-79
2021/06/27 02:36:03;;;;;;;16.73;15.33;;;18.90;99.90;;;;;;5072843;28;20845;-80
2021/06/27 02:38:29;;;;;;;17.40;15.70;;;19.00;99.90;;;;;;5072095;28;20419;-79
2021/06/27 02:40:54;;;;;;;17.30;15.70;;;19.00;99.90;;;;;;5072708;28;20396;-80
2021/06/27 02:43:21;;;;;;;16.60;15.10;;;18.90;99.90;;;;;;5072114;28;20169;-80
2021/06/27 02:45:47;;;;;;;18.20;16.63;;;18.90;99.90;;;;;;5072713;28;20229;-80
2021/06/27 02:48:14;;;;;;;18.50;17.00;;;18.90;99.90;;;;;;5072928;28;20447;-79
2021/06/27 02:50:41;;;;;;;18.43;16.93;;;18.80;99.90;;;;;;5072712;28;20399;-80
2021/06/27 02:53:08;;;;;;;18.33;16.70;;;18.80;99.90;;;;;;5071855;28;20462;-80
2021/06/27 02:55:34;;;;;;;17.50;16.07;;;18.80;99.90;;;;;;5071698;28;20812;-79
2021/06/27 02:58:00;;;;;;;19.00;17.30;;;18.80;99.90;;;;;;5072919;28;20410;-79
2021/06/27 03:00:29;;;;;;;18.43;16.83;;;18.60;99.90;;;;;;5054081;28;20399;-79
2021/06/27 03:02:55;;;;;;;18.80;17.10;;;18.50;99.90;;;;;;5072462;28;20411;-79
2021/06/27 03:05:20;;;;;;;17.97;16.37;;;18.50;99.90;;;;;;5071952;28;20427;-79
2021/06/27 03:07:46;;;;;;;19.00;17.10;;;18.40;99.90;;;;;;5072434;28;20447;-79
2021/06/27 03:10:15;;;;;;;18.63;17.07;;;18.40;99.90;;;;;;5072537;28;20217;-79
2021/06/27 03:12:42;;;;;;;19.17;17.47;;;18.40;99.90;;;;;;5071767;28;20181;-79
2021/06/27 03:15:09;;;;;;;19.40;17.60;;;18.40;99.90;;;;;;5072443;28;20726;-80
2021/06/27 03:17:35;;;;;;;17.27;15.87;;;18.30;99.90;;;;;;5071811;28;20411;-80
2021/06/27 03:20:02;;;;;;;18.53;16.90;;;18.30;99.90;;;;;;5072359;28;20408;-80
2021/06/27 03:22:28;;;;;;;18.17;16.63;;;18.20;99.90;;;;;;5071695;28;20502;-79
2021/06/27 03:24:54;;;;;;;19.00;17.30;;;18.20;99.90;;;;;;5072244;28;20451;-79
2021/06/27 03:27:20;;;;;;;19.60;17.80;;;18.30;99.90;;;;;;5071602;28;20213;-86
2021/06/27 03:29:47;;;;;;;18.23;16.53;;;18.20;99.90;;;;;;5072311;28;20417;-80
2021/06/27 03:32:13;;;;;;;19.50;17.80;;;18.20;99.90;;;;;;5072330;28;20196;-81
2021/06/27 03:34:38;;;;;;;18.83;17.13;;;18.10;99.90;;;;;;5071618;28;20921;-81
2021/06/27 03:37:04;;;;;;;17.87;16.37;;;18.10;99.90;;;;;;5072325;28;20185;-81
2021/06/27 03:39:30;;;;;;;19.90;18.07;;;18.20;99.90;;;;;;5071565;28;20176;-80
2021/06/27 03:41:56;;;;;;;18.20;16.63;;;18.20;99.90;;;;;;5072223;28;20180;-81
2021/06/27 03:44:23;;;;;;;17.90;16.30;;;18.30;99.90;;;;;;5053513;28;20918;-81
2021/06/27 03:46:49;;;;;;;18.10;16.60;;;18.40;99.90;;;;;;5072402;28;20782;-80
2021/06/27 03:49:15;;;;;;;17.73;16.00;;;18.40;99.90;;;;;;5072351;28;20442;-80
2021/06/27 03:51:42;;;;;;;17.40;15.90;;;18.50;99.90;;;;;;5071475;28;20415;-80
2021/06/27 03:54:08;;;;;;;17.80;16.30;;;18.60;99.90;;;;;;5071966;28;20722;-80
2021/06/27 03:56:34;;;;;;;17.20;15.70;;;18.60;99.90;;;;;;5071063;28;20456;-81
2021/06/27 03:58:59;;;;;;;17.33;15.73;;;18.60;99.90;;;;;;5072023;28;20497;-81
2021/06/27 04:01:25;;;;;;;17.17;15.77;;;18.70;99.90;;;;;;5071393;28;20879;-81
2021/06/27 04:03:51;;;;;;;17.30;15.90;;;18.70;99.90;;;;;;5053949;28;20177;-81
2021/06/27 04:06:17;;;;;;;17.53;15.87;;;18.80;99.90;;;;;;5073703;28;20549;-80
2021/06/27 04:08:43;;;;;;;18.20;16.50;;;18.80;99.90;;;;;;5074901;28;20218;-80
2021/06/27 04:11:08;;;;;;;20.90;17.03;;;18.80;99.90;;;;;;5075355;28;20177;-81
2021/06/27 04:13:36;;;;;;;18.50;16.70;;;18.60;99.90;;;;;;5074854;28;20177;-81
2021/06/27 04:16:03;;;;;;;16.70;15.30;;;18.60;99.90;;;;;;5075534;28;20187;-81
2021/06/27 04:18:30;;;;;;;17.47;16.07;;;18.60;99.90;;;;;;5074740;28;20419;-82
2021/06/27 04:20:57;;;;;;;18.67;16.77;;;18.60;99.90;;;;;;5075512;28;20408;-81
2021/06/27 04:23:24;;;;;;;17.97;16.17;;;18.60;99.90;;;;;;5056837;28;20987;-82
2021/06/27 04:25:50;;;;;;;18.30;16.70;;;18.60;99.90;;;;;;5074873;28;20767;-82
2021/06/27 04:28:15;;;;;;;16.70;15.17;;;18.50;99.90;;;;;;5075113;28;20467;-81
2021/06/27 04:30:42;;;;;;;21.13;18.87;;;18.60;99.90;;;;;;5074537;28;20303;-82
2021/06/27 04:33:10;;;;;;;19.00;17.30;;;18.70;99.90;;;;;;5075056;28;20173;-81
2021/06/27 04:35:37;;;;;;;18.13;16.73;;;18.80;99.90;;;;;;5074367;28;20405;-81
2021/06/27 04:38:04;;;;;;;18.43;16.73;;;18.80;99.90;;;;;;5074973;28;20830;-81
2021/06/27 04:40:30;;;;;;;19.20;17.40;;;18.90;99.90;;;;;;5074614;28;20403;-82
2021/06/27 04:42:56;;;;;;;17.30;15.80;;;19.00;99.90;;;;;;5074952;28;20407;-81
2021/06/27 04:45:22;;;;;;;19.00;17.27;;;19.10;99.90;;;;;;5074332;28;20456;-81
2021/06/27 04:47:48;;;;;;;19.83;17.93;;;19.10;99.90;;;;;;5074679;28;20227;-81
2021/06/27 04:50:14;;;;;;;20.07;18.17;;;19.20;99.90;;;;;;5056918;28;20510;-81
2021/06/27 04:52:40;;;;;;;21.23;19.23;;;19.20;99.90;;;;;;5074091;28;20395;-81
2021/06/27 04:55:07;;;;;;;19.77;17.97;;;19.20;99.90;;;;;;5074723;28;20181;-81
2021/06/27 04:57:34;;;;;;;23.73;21.43;;;19.20;99.90;;;;;;5074026;28;20460;-82
2021/06/27 05:00:00;;;;;;;20.67;18.70;;;19.30;99.90;;;;;;5074559;28;20498;-81
2021/06/27 05:02:26;;;;;;;21.00;18.80;;;19.30;99.90;;;;;;5073648;28;20404;-82
2021/06/27 05:04:51;;;;;;;26.27;23.50;;;19.30;99.90;;;;;;5074461;28;20756;-82
2021/06/27 05:07:17;;;;;;;19.57;17.77;;;19.30;99.90;;;;;;5074409;28;20208;-81
2021/06/27 05:09:43;;;;;;;20.10;17.70;;;19.40;99.90;;;;;;5073818;28;20173;-82
2021/06/27 05:12:09;;;;;;;21.67;19.43;;;19.50;99.90;;;;;;5074548;28;20264;-81
2021/06/27 05:14:35;;;;;;;19.30;17.40;;;19.50;99.90;;;;;;5073696;28;20499;-81
2021/06/27 05:17:01;;;;;;;16.90;15.40;;;19.50;99.90;;;;;;5073933;28;20539;-81
2021/06/27 05:19:27;;;;;;;18.13;16.43;;;19.50;99.90;;;;;;5072359;28;20484;-82
2021/06/27 05:21:53;;;;;;;16.97;15.47;;;19.60;99.90;;;;;;5074457;28;20187;-81
2021/06/27 05:24:19;;;;;;;17.50;16.07;;;19.60;99.90;;;;;;5074213;28;20545;-82
2021/06/27 05:26:48;;;;;;;17.70;16.13;;;19.70;99.90;;;;;;5073301;28;20485;-81
2021/06/27 05:29:14;;;;;;;17.63;16.13;;;19.60;99.90;;;;;;5073805;28;20411;-81
2021/06/27 05:31:39;;;;;;;17.87;16.13;;;19.70;99.90;;;;;;5055407;28;20493;-81
2021/06/27 05:34:05;;;;;;;16.77;15.27;;;19.80;99.90;;;;;;5073988;28;20728;-80
2021/06/27 05:36:37;;;;;;;15.67;14.17;;;19.80;99.90;;;;;;5073247;28;20173;-81
2021/06/27 05:39:08;;;;;;;16.70;15.30;;;19.80;99.90;;;;;;5073784;28;20161;-80
2021/06/27 05:41:35;;;;;;;16.57;15.07;;;19.80;99.90;;;;;;5073151;28;20406;-81
2021/06/27 05:44:02;;;;;;;17.37;15.87;;;19.90;99.90;;;;;;5074201;28;20738;-81
2021/06/27 05:46:28;;;;;;;16.13;14.63;;;20.00;99.90;;;;;;5072875;28;20827;-81
2021/06/27 05:48:54;;;;;;;15.17;13.87;;;19.90;99.90;;;;;;5073866;28;20415;-81
2021/06/27 05:51:19;;;;;;;15.40;14.07;;;19.90;99.90;;;;;;5073540;28;20165;-81
2021/06/27 05:53:45;;;;;;;15.87;14.63;;;19.90;99.90;;;;;;5072884;28;20177;-81
2021/06/27 05:56:12;;;;;;;15.20;14.00;;;19.90;99.90;;;;;;5073421;28;20177;-81
2021/06/27 05:58:39;;;;;;;16.93;15.43;;;19.80;99.90;;;;;;5072889;28;20227;-81
2021/06/27 06:01:10;;;;;;;15.90;14.40;;;19.80;99.90;;;;;;5073330;28;20414;-81
2021/06/27 06:03:36;;;;;;;16.00;14.70;;;19.80;99.90;;;;;;5054652;28;20502;-80
2021/06/27 06:06:06;;;;;;;15.33;14.03;;;19.80;99.90;;;;;;5072865;28;20408;-81
2021/06/27 06:08:32;;;;;;;14.80;13.60;;;19.80;99.90;;;;;;5072614;28;20437;-81
2021/06/27 06:10:58;;;;;;;17.00;15.33;;;19.90;99.90;;;;;;5073140;28;20760;-81
2021/06/27 06:13:24;;;;;;;16.20;14.77;;;19.90;99.90;;;;;;5073050;28;20418;-81
2021/06/27 06:15:50;;;;;;;14.77;13.57;;;19.90;99.90;;;;;;5071927;28;20181;-81
2021/06/27 06:18:16;;;;;;;16.27;14.80;;;19.80;99.90;;;;;;5073048;28;20572;-81
2021/06/27 06:20:42;;;;;;;15.00;13.80;;;19.80;99.90;;;;;;5072382;28;20179;-78
2021/06/27 06:23:08;;;;;;;14.97;13.77;;;19.90;99.90;;;;;;5072660;28;20400;-80
2021/06/27 06:25:34;;;;;;;14.97;13.67;;;20.00;99.90;;;;;;5054323;28;20169;-80
2021/06/27 06:27:59;;;;;;;15.40;14.10;;;20.10;99.90;;;;;;5072235;28;20523;-80
2021/06/27 06:30:25;;;;;;;15.57;14.20;;;20.20;99.90;;;;;;5072971;28;20307;-81
2021/06/27 06:32:51;;;;;;;15.47;14.27;;;20.30;99.90;;;;;;5054444;28;20537;-81
2021/06/27 06:35:17;;;;;;;15.07;13.53;;;20.40;99.90;;;;;;5073219;28;20419;-80
2021/06/27 06:37:43;;;;;;;15.40;14.10;;;20.50;99.90;;;;;;5072187;28;20173;-81
2021/06/27 06:40:09;;;;;;;14.70;13.50;;;20.60;99.90;;;;;;5072770;28;20177;-81
2021/06/27 06:42:35;;;;;;;16.40;15.10;;;20.70;99.90;;;;;;5072147;28;20878;-81
2021/06/27 06:45:01;;;;;;;14.73;13.43;;;20.70;99.90;;;;;;5072611;28;20455;-81
2021/06/27 06:47:28;;;;;;;15.07;13.70;;;20.60;99.90;;;;;;5072467;28;20497;-81
2021/06/27 06:49:53;;;;;;;14.80;13.60;;;20.60;99.90;;;;;;5070771;28;20884;-81
2021/06/27 06:52:19;;;;;;;14.83;13.57;;;20.70;99.90;;;;;;5072579;28;20185;-81
2021/06/27 06:54:53;;;;;;;17.33;15.87;;;20.90;99.90;;;;;;5054026;28;20264;-81
2021/06/27 06:57:19;;;;;;;14.87;13.67;;;21.00;99.90;;;;;;5072582;28;20163;-81
2021/06/27 06:59:45;;;;;;;14.43;13.33;;;21.20;99.90;;;;;;5071658;28;20415;-81
2021/06/27 07:02:10;;;;;;;14.87;13.57;;;21.30;99.90;;;;;;5054651;28;20534;-81
2021/06/27 07:04:36;;;;;;;13.40;12.07;;;21.50;99.90;;;;;;5071975;28;20201;-79
2021/06/27 07:07:02;;;;;;;12.50;11.60;;;21.60;99.90;;;;;;5072364;28;20204;-82
2021/06/27 07:09:28;;;;;;;13.13;12.13;;;21.60;99.20;;;;;;5072464;28;20205;-81
2021/06/27 07:11:53;;;;;;;12.73;11.57;;;21.70;99.90;;;;;;5071795;28;20173;-81
2021/06/27 07:14:19;;;;;;;12.77;11.80;;;21.80;99.10;;;;;;5072232;28;20613;-81
2021/06/27 07:16:45;;;;;;;12.83;11.80;;;21.90;99.40;;;;;;5053905;28;20314;-81
2021/06/27 07:19:10;;;;;;;14.60;13.53;;;22.10;99.90;;;;;;5072417;28;20173;-81
2021/06/27 07:21:39;;;;;;;14.37;13.33;;;22.30;99.90;;;;;;5053900;28;20176;-83
2021/06/27 07:24:05;;;;;;;13.47;12.40;;;22.40;98.90;;;;;;5054443;28;20180;-82
2021/06/27 07:26:30;;;;;;;13.87;12.77;;;22.50;98.50;;;;;;5072288;28;20981;-79
2021/06/27 07:28:56;;;;;;;14.00;12.90;;;22.70;99.00;;;;;;5071987;28;20412;-82
2021/06/27 07:31:22;;;;;;;12.00;11.10;;;22.90;99.20;;;;;;5072230;28;20179;-82
2021/06/27 07:33:48;;;;;;;12.10;11.07;;;23.00;98.10;;;;;;5070446;28;20192;-78
2021/06/27 07:36:13;;;;;;;11.43;10.60;;;23.20;98.00;;;;;;5054413;28;20165;-78
2021/06/27 07:38:39;;;;;;;10.87;10.07;;;23.30;97.40;;;;;;5071822;28;20291;-79
2021/06/27 07:41:05;;;;;;;11.30;10.40;;;23.50;97.60;;;;;;5075428;28;20407;-79
2021/06/27 07:43:33;;;;;;;11.47;10.53;;;23.60;97.60;;;;;;5076009;28;20173;-78
2021/06/27 07:45:59;;;;;;;10.97;9.97;;;23.80;97.30;;;;;;5076000;28;20221;-85
2021/06/27 07:48:25;;;;;;;11.57;10.53;;;24.00;97.60;;;;;;5075888;28;20463;-86
2021/06/27 07:50:51;;;;;;;11.93;10.93;;;24.10;97.80;;;;;;5075175;28;20430;-86
2021/06/27 07:53:17;;;;;;;28.67;25.80;;;24.30;98.00;;;;;;5057924;28;20907;-86
2021/06/27 07:55:43;;;;;;;83.57;72.87;;;24.40;97.20;;;;;;5057343;28;20406;-80
2021/06/27 07:58:08;;;;;;;26.33;23.87;;;24.40;97.00;;;;;;5058161;28;20183;-78
2021/06/27 08:00:34;;;;;;;131.00;112.70;;;24.50;96.40;;;;;;5075322;28;20184;-82
2021/06/27 08:03:01;;;;;;;65.80;59.00;;;24.50;96.10;;;;;;5075591;28;20173;-78
2021/06/27 08:05:26;;;;;;;25.80;23.20;;;24.60;95.80;;;;;;5075610;28;20604;-78
2021/06/27 08:07:52;;;;;;;13.67;12.57;;;24.70;95.80;;;;;;5074982;28;20546;-81
2021/06/27 08:10:18;;;;;;;11.90;11.00;;;24.80;95.90;;;;;;5075224;28;20176;-82
2021/06/27 08:12:44;;;;;;;12.37;11.27;;;24.80;95.30;;;;;;5075263;28;20211;-83
2021/06/27 08:15:17;;;;;;;11.57;10.77;;;24.80;94.80;;;;;;5057474;28;20727;-84
2021/06/27 08:17:50;;;;;;;12.07;11.17;;;24.80;94.90;;;;;;5074782;28;20231;-85
2021/06/27 08:20:18;;;;;;;12.20;11.20;;;24.90;95.10;;;;;;5075850;28;20404;-84
2021/06/27 08:22:43;;;;;;;11.00;10.10;;;24.90;95.50;;;;;;5056624;28;20975;-83
2021/06/27 08:25:10;;;;;;;13.13;12.10;;;25.00;95.20;;;;;;5075009;28;20403;-86
2021/06/27 08:27:36;;;;;;;11.93;11.03;;;25.10;95.60;;;;;;5074661;28;20212;-91
2021/06/27 08:30:07;;;;;;;11.07;10.30;;;25.20;95.30;;;;;;5075175;28;20422;-83
2021/06/27 08:32:33;;;;;;;11.17;10.30;;;25.30;95.60;;;;;;5075152;28;20430;-83
2021/06/27 08:34:59;;;;;;;11.80;10.80;;;25.40;93.90;;;;;;5074525;28;20415;-83
2021/06/27 08:37:25;;;;;;;11.80;10.97;;;25.60;94.50;;;;;;5075112;28;20412;-84
2021/06/27 08:39:51;;;;;;;10.03;9.33;;;25.70;94.00;;;;;;5074472;28;20181;-84
2021/06/27 08:42:20;;;;;;;11.07;10.27;;;25.90;93.90;;;;;;5074746;28;20239;-84
2021/06/27 08:44:48;;;;;;;12.63;11.70;;;26.00;93.90;;;;;;5074513;28;20225;-85
2021/06/27 08:47:18;;;;;;;391.07;315.83;;;26.20;93.60;;;;;;5074781;28;20538;-83
2021/06/27 08:49:52;;;;;;;43.53;38.93;;;26.30;93.30;;;;;;5073981;28;20455;-83
2021/06/27 08:52:19;;;;;;;14.73;13.53;;;26.40;93.50;;;;;;5074074;28;20408;-81
2021/06/27 08:54:47;;;;;;;11.30;10.50;;;26.50;92.60;;;;;;5056294;28;20423;-81
2021/06/27 08:57:14;;;;;;;11.27;10.37;;;26.60;92.70;;;;;;5056826;28;20904;-81
2021/06/27 08:59:41;;;;;;;12.57;11.37;;;26.60;91.80;;;;;;5073576;28;20416;-81
2021/06/27 09:02:09;;;;;;;10.97;10.27;;;26.60;91.80;;;;;;5074623;28;20411;-81
2021/06/27 09:04:40;;;;;;;12.13;11.23;;;26.70;92.30;;;;;;5056692;28;20403;-83
2021/06/27 09:07:28;;;;;;;12.07;10.87;;;26.80;92.90;;;;;;5074649;28;20474;-82
2021/06/27 09:09:56;;;;;;;11.77;10.87;;;26.80;91.80;;;;;;5073876;28;20403;-83
2021/06/27 09:12:22;;;;;;;10.97;10.17;;;26.90;92.40;;;;;;5074068;28;20420;-83
2021/06/27 09:14:48;;;;;;;11.37;9.93;;;27.00;92.70;;;;;;5073910;28;20506;-83
2021/06/27 09:17:25;;;;;;;10.37;9.67;;;27.10;92.60;;;;;;5074258;28;20498;-83
2021/06/27 09:19:50;;;;;;;10.93;10.10;;;27.20;92.50;;;;;;5073726;28;20291;-83
2021/06/27 09:22:17;;;;;;;11.20;10.37;;;27.20;90.60;;;;;;5074221;28;20480;-83
2021/06/27 09:24:45;;;;;;;10.30;9.60;;;27.20;85.70;;;;;;5073548;28;20535;-85
2021/06/27 09:27:21;;;;;;;8.93;8.33;;;27.00;84.00;;;;;;5074106;28;20489;-84
2021/06/27 09:29:49;;;;;;;10.67;9.97;;;27.00;84.40;;;;;;5073572;28;20422;-84
2021/06/27 09:32:16;;;;;;;9.87;9.17;;;26.90;83.40;;;;;;5074834;28;20415;-83
2021/06/27 09:34:43;;;;;;;10.30;9.60;;;26.90;84.30;;;;;;5073819;28;20414;-83
2021/06/27 09:37:12;;;;;;;11.97;11.07;;;26.80;86.40;;;;;;5056125;28;20794;-82
2021/06/27 09:39:52;;;;;;;161.83;129.67;;;26.90;88.00;;;;;;5056577;28;20403;-84
2021/06/27 09:42:17;;;;;;;117.50;105.57;;;26.90;88.50;;;;;;5073919;28;20401;-82
2021/06/27 09:44:43;;;;;;;22.73;20.73;;;27.10;89.90;;;;;;5072844;28;20403;-82
2021/06/27 09:47:09;;;;;;;10.53;9.73;;;27.10;89.90;;;;;;5073774;28;20671;-81
2021/06/27 09:49:35;;;;;;;11.00;10.10;;;27.20;86.80;;;;;;5073730;28;20419;-82
2021/06/27 09:52:07;;;;;;;14.57;13.37;;;27.30;88.50;;;;;;5074368;28;20192;-85
2021/06/27 09:54:34;;;;;;;17.53;16.13;;;27.40;87.10;;;;;;5073652;28;20176;-81
2021/06/27 09:57:00;;;;;;;13.97;12.73;;;27.50;86.60;;;;;;5073465;28;20411;-81
2021/06/27 09:59:37;;;;;;;11.03;10.23;;;27.50;86.90;;;;;;5073447;28;20476;-79
2021/06/27 10:02:04;;;;;;;9.70;9.10;;;27.50;86.00;;;;;;5072843;28;20753;-78
2021/06/27 10:04:36;;;;;;;9.70;9.00;;;27.50;82.90;;;;;;5072459;28;20415;-80
2021/06/27 10:07:07;;;;;;;9.47;8.87;;;27.60;82.80;;;;;;5072870;28;20447;-78
2021/06/27 10:09:39;;;;;;;8.83;8.27;;;27.70;82.10;;;;;;5073428;28;20762;-83
2021/06/27 10:12:12;;;;;;;10.10;9.50;;;27.80;83.20;;;;;;5073011;28;20403;-83
2021/06/27 10:14:50;;;;;;;10.50;9.70;;;27.80;80.50;;;;;;5073367;28;20423;-82
2021/06/27 10:17:18;;;;;;;9.50;8.90;;;27.70;78.50;;;;;;5074473;28;20396;-90
2021/06/27 10:19:45;;;;;;;10.90;10.20;;;27.40;78.00;;;;;;5073199;28;20906;-89
2021/06/27 10:22:11;;;;;;;15.43;13.90;;;27.30;80.10;;;;;;5073451;28;20925;-89
2021/06/27 10:24:37;;;;;;;10.13;9.37;;;27.30;83.00;;;;;;5054892;28;20751;-81
2021/06/27 10:27:05;;;;;;;10.33;9.63;;;27.40;84.60;;;;;;5054213;28;20512;-80
2021/06/27 10:29:32;;;;;;;10.97;10.13;;;27.40;84.60;;;;;;5071784;28;20633;-80
2021/06/27 10:31:58;;;;;;;9.90;9.20;;;27.50;83.60;;;;;;5072005;28;20511;-81
2021/06/27 10:34:24;;;;;;;11.17;10.30;;;27.50;84.00;;;;;;5072933;28;20439;-82
2021/06/27 10:36:53;;;;;;;11.00;10.30;;;27.50;84.90;;;;;;5072380;28;20184;-83
2021/06/27 10:39:20;;;;;;;11.60;10.80;;;27.60;82.80;;;;;;5072935;28;20811;-81
2021/06/27 10:41:59;;;;;;;11.10;10.40;;;27.50;82.90;;;;;;5072253;28;20408;-82
2021/06/27 10:44:49;;;;;;;11.00;10.13;;;27.60;82.70;;;;;;5073323;28;20404;-82
2021/06/27 10:47:33;;;;;;;10.07;9.43;;;27.60;83.10;;;;;;5054826;28;20487;-82
2021/06/27 10:50:02;;;;;;;9.50;8.90;;;27.60;82.20;;;;;;5054276;28;20898;-83
2021/06/27 10:52:28;;;;;;;11.03;10.23;;;27.50;82.40;;;;;;5072395;28;20407;-82
2021/06/27 10:55:14;;;;;;;10.50;9.80;;;27.50;82.30;;;;;;5071732;28;20778;-82
2021/06/27 10:57:56;;;;;;;11.27;10.30;;;27.60;83.60;;;;;;5072569;28;20231;-82
2021/06/27 11:00:24;;;;;;;10.73;9.83;;;27.70;84.50;;;;;;5072869;28;20893;-83
2021/06/27 11:02:50;;;;;;;11.03;10.33;;;27.80;85.00;;;;;;5071933;28;20455;-83
2021/06/27 11:05:28;;;;;;;98.50;88.10;;;27.90;83.50;;;;;;5072458;28;20498;-83
2021/06/27 11:08:01;;;;;;;188.63;168.00;;;28.00;83.50;;;;;;5071791;28;20465;-83
2021/06/27 11:10:32;;;;;;;17.67;15.90;;;28.20;84.30;;;;;;5073439;28;20938;-81
2021/06/27 11:13:00;;;;;;;11.47;10.70;;;28.40;83.70;;;;;;5073095;28;20426;-82
2021/06/27 11:15:35;;;;;;;10.50;9.80;;;28.50;83.60;;;;;;5057691;28;20922;-82
2021/06/27 11:18:06;;;;;;;10.70;9.90;;;28.70;81.00;;;;;;5076458;28;20422;-83
2021/06/27 11:20:47;;;;;;;10.40;9.70;;;28.80;80.30;;;;;;5077243;28;20407;-82
2021/06/27 11:23:13;;;;;;;12.17;11.27;;;28.90;80.70;;;;;;5058794;28;20469;-82
2021/06/27 11:25:40;;;;;;;11.10;10.40;;;29.10;81.90;;;;;;5077264;28;20399;-82
2021/06/27 11:28:18;;;;;;;10.83;10.10;;;29.10;76.50;;;;;;5075962;28;20478;-83
2021/06/27 11:30:48;;;;;;;11.77;10.87;;;29.20;79.70;;;;;;5076692;28;20472;-83
2021/06/27 11:33:23;;;;;;;11.87;11.07;;;29.30;80.10;;;;;;5076980;28;20437;-83
2021/06/27 11:35:58;;;;;;;15.17;13.67;;;29.40;79.30;;;;;;5076198;28;20391;-87
2021/06/27 11:38:39;;;;;;;10.70;9.90;;;29.20;76.40;;;;;;5058579;28;20414;-83
2021/06/27 11:41:35;;;;;;;10.60;9.90;;;29.00;75.30;;;;;;5075346;28;20507;-81
2021/06/27 11:44:08;;;;;;;10.53;9.83;;;29.10;77.10;;;;;;5075391;28;20427;-83
2021/06/27 11:46:38;;;;;;;11.77;10.97;;;29.20;75.20;;;;;;5075701;28;20830;-91
2021/06/27 11:49:13;;;;;;;10.07;9.47;;;29.20;76.40;;;;;;5075814;28;20860;-81
2021/06/27 11:51:47;;;;;;;10.13;9.43;;;29.10;74.40;;;;;;5076011;28;20490;-82
2021/06/27 11:54:29;;;;;;;11.23;10.43;;;29.00;74.00;;;;;;5075603;28;20410;-82
2021/06/27 11:56:58;;;;;;;11.30;10.50;;;28.80;74.10;;;;;;5075415;28;20417;-82
2021/06/27 11:59:28;;;;;;;9.50;8.80;;;28.70;74.30;;;;;;5075540;28;20871;-82
2021/06/27 12:02:26;;;;;;;11.10;10.40;;;28.60;75.40;;;;;;5075514;28;20391;-82
2021/06/27 12:04:55;;;;;;;10.60;9.73;;;28.50;77.90;;;;;;5074930;28;20458;-83
2021/06/27 12:07:28;;;;;;;13.47;12.40;;;28.50;77.60;;;;;;5075743;28;20455;-82
2021/06/27 12:09:55;;;;;;;11.50;10.50;;;28.40;77.30;;;;;;5075070;28;20898;-82
2021/06/27 12:12:39;;;;;;;11.70;10.90;;;28.50;78.60;;;;;;5075460;28;20909;-81
2021/06/27 12:15:27;;;;;;;9.53;8.93;;;28.70;78.30;;;;;;5057354;28;20489;-83
2021/06/27 12:17:56;;;;;;;10.20;9.50;;;28.80;78.30;;;;;;5056667;28;20520;-80
2021/06/27 12:20:23;;;;;;;11.37;10.57;;;28.90;78.50;;;;;;5075414;28;20918;-81
2021/06/27 12:22:56;;;;;;;16.60;15.37;;;29.10;77.10;;;;;;5075747;28;20812;-82
2021/06/27 12:25:31;;;;;;;11.40;10.67;;;29.20;76.80;;;;;;5075353;28;20410;-81
2021/06/27 12:28:05;;;;;;;10.00;9.40;;;29.30;75.40;;;;;;5073570;28;21007;-83
2021/06/27 12:30:47;;;;;;;10.60;9.90;;;29.40;74.10;;;;;;5075337;28;20406;-82
2021/06/27 12:33:19;;;;;;;9.03;8.53;;;29.50;75.90;;;;;;5073462;28;20410;-82